KSZL/SZL METAR and TAF weather

Enter ICAO airport designator
Station Type Date Time Source
KSZL METAR 2019/06/16 19:56 UTC NOAA

KSZL 161956Z 20013KT 10SM SCT030 SCT150 27/21 A2981 RMK AO2A SLP090 T02740214 $


Station Type Date Time Source
KSZL Decoded METAR 2019/06/16 19:56 UTC NOAA

Whiteman Air Force Base, MO, United States (KSZL) 38-44N 093-33W
Jun 16, 2019 - 03:56 PM EDT / 2019.06.16 1956 UTC
Wind: from the SSW (200 degrees) at 15 MPH (13 KT):0
Visibility: 10 mile(s):0
Sky conditions: partly cloudy
Temperature: 81.3 F (27.4 C)
Dew Point: 70.5 F (21.4 C)
Relative Humidity: 69%
Pressure (altimeter): 29.81 in. Hg (1009 hPa)
ob: KSZL 161956Z 20013KT 10SM SCT030 SCT150 27/21 A2981 RMK AO2A SLP090 T02740214
cycle: 20

Station Type Date Time Source
KSZL TAF 2019/06/16 11:43 UTC NOAA

TAF KSZL 161100Z 1611/1717 20006KT 9999 SCT010 BKN040 QNH2980INS
TEMPO 1611/1613 22012G18KT BKN020
BECMG 1614/1615 03006KT 9999 SCT100 QNH2982INS
BECMG 1709/1710 04010KT 9999 BKN050 QNH2987INS TX30/1620Z TN22/1611Z

Example: see airport list